Monday, July 23, 2018, 11:33 AM EDT
Back to Local

KPOU, Poughkeepsie Dutchess Cty

Location: Wappingers Falls, NY, United States Lat: 41.633
Local Time: 11:33 AM EDT (15:33 GMT) Lon: -73.883
Time Zone: US/Eastern Elev: 167 ft

Show me the last for .
Show Decoded

2018-07-23 10:53 METAR KPOU 231453Z 17005KT 4SM -RA BR FEW016 BKN023 OVC038 24/22 A3011 RMK AO2
                 RAB38 SLP191 P0002 60005 T02390217 53012 =
2018-07-23 09:53 METAR KPOU 231353Z 16008G15KT 10SM SCT024 BKN032 OVC050 24/22 A3009 RMK AO2
                 RAB00E20 SLP183 P0001 T02440217 =
2018-07-23 08:53 METAR KPOU 231253Z 15004KT 10SM SCT022 BKN030 OVC055 24/23 A3008 RMK AO2 RAE37
                 SLP180 P0002 T02440228 =
2018-07-23 07:53 METAR KPOU 231153Z 13005KT 7SM -RA BKN018 BKN025 OVC030 24/23 A3006 RMK AO2
                 RAB35 SLP176 P0006 60010 70084 T02390228 10244 20233 53012 =
2018-07-23 07:48 METAR KPOU 231148Z VRB04KT 3SM -RA BR SCT018 BKN023 OVC030 24/23 A3006 RMK AO2
                 RAB35 P0006 =
2018-07-23 07:38 METAR KPOU 231138Z 13007KT 1 3/4SM RA BR FEW018 BKN023 OVC028 24/22 A3006 RMK
                 AO2 RAB35 P0004 T02390222 =
2018-07-23 06:53 METAR KPOU 231053Z 13006KT 10SM BKN023 BKN028 24/22 A3005 RMK AO2 RAE02 SLP172
                 P0000 T02440222 =
2018-07-23 05:53 METAR KPOU 230953Z AUTO 13004KT 6SM -RA BR SCT021 BKN028 OVC048 24/22 A3004 RMK
                 AO2 RAB08 SLP168 P0002 T02390222 =
2018-07-23 05:21 METAR KPOU 230921Z AUTO 10003KT 5SM RA BR BKN023 BKN031 OVC060 24/22 A3003 RMK
                 AO2 RAB08 P0001 T02390222 =
2018-07-23 04:53 METAR KPOU 230853Z AUTO 00000KT 10SM FEW019 SCT065 SCT100 24/22 A3003 RMK AO2
                 RAB19E28 SLP164 P0001 60002 T02390222 53001 =
2018-07-23 04:38 METAR KPOU 230838Z AUTO 13003KT 10SM FEW022 SCT029 23/22 A3002 RMK AO2 RAB19E28
                 P0000 T02330222 =
2018-07-23 04:26 METAR KPOU 230826Z AUTO 12007KT 9SM -RA FEW011 SCT023 BKN028 24/22 A3002 RMK AO2
                 RAB19 P0000 T02390222 =
2018-07-23 03:53 METAR KPOU 230753Z AUTO 13005KT 10SM FEW023 BKN034 OVC060 24/22 A3002 RMK AO2
                 RAB35E52 SLP161 P0000 T02390222 =
2018-07-23 02:53 METAR KPOU 230653Z AUTO 12005KT 10SM BKN021 OVC026 24/22 A3001 RMK AO2 RAB24E33
                 SLP159 P0001 T02390222 =
2018-07-23 01:53 METAR KPOU 230553Z AUTO 12003KT 10SM BKN021 OVC026 23/22 A3003 RMK AO2 RAE03
                 SLP163 P0000 60069 T02330222 10239 20228 50000 =
2018-07-23 00:53 METAR KPOU 230453Z AUTO 11004KT 6SM -RA BR FEW009 BKN019 OVC025 23/22 A3004 RMK
                 AO2 RAB08 SLP167 P0042 T02330217 402830183 =
2018-07-23 00:48 METAR KPOU 230448Z AUTO 15004KT 3SM -RA BR FEW009 OVC023 23/22 A3004 RMK AO2
                 RAB08 P0042 =
2018-07-23 00:41 METAR KPOU 230441Z AUTO 15003KT 1 1/2SM +RA BR FEW009 FEW018 OVC029 23/22 A3004
                 RMK AO2 RAB08 P0041 T02280222 =
2018-07-23 00:29 METAR KPOU 230429Z AUTO 10006KT 1SM +RA BR FEW021 OVC031 23/22 A3003 RMK AO2
                 RAB08 P0030 T02280217 =
2018-07-23 00:21 METAR KPOU 230421Z AUTO 12005KT 2SM +RA BR SCT026 OVC041 23/22 A3004 RMK AO2
                 RAB08 P0011 T02280217 =
2018-07-22 23:53 METAR KPOU 230353Z AUTO 00000KT 10SM BKN024 OVC031 23/22 A3003 RMK AO2
                 RAB0257E27 SLP165 P0005 T02280217 =
2018-07-22 23:20 METAR KPOU 230320Z AUTO 08003KT 6SM -RA BR FEW017 BKN030 OVC038 23/22 A3002 RMK
                 AO2 RAB0257 P0005 T02280217 =
2018-07-22 22:53 METAR KPOU 230253Z AUTO 13003KT 7SM FEW007 BKN018 OVC026 23/22 A3003 RMK AO2
                 RAE53 SLP163 P0010 60022 T02280217 50008 =
2018-07-22 22:45 METAR KPOU 230245Z AUTO 12005KT 3SM -RA BR FEW007 SCT017 OVC027 23/22 A3003 RMK
                 AO2 P0010 T02280217 =
2018-07-22 22:37 METAR KPOU 230237Z AUTO 13004KT 3SM +RA BR SCT007 BKN031 OVC060 23/22 A3003 RMK
                 AO2 P0008 T02280217 =
2018-07-22 22:26 METAR KPOU 230226Z AUTO 00000KT 10SM -RA SCT017 BKN027 OVC110 23/21 A3003 RMK
                 AO2 P0004 T02280211 =
2018-07-22 21:53 METAR KPOU 230153Z 09005KT 5SM RA BR SCT020 BKN035 OVC110 23/21 A3003 RMK AO2
                 RAB0057 SLP164 P0012 T02280211 =
2018-07-22 20:53 METAR KPOU 230053Z 10006KT 10SM OVC015 23/21 A3001 RMK AO2 SLP157 T02330211 =
2018-07-22 19:53 METAR KPOU 222353Z 12008KT 10SM OVC022 24/21 A3000 RMK AO2 RAB21E45 SLP155 P0001
                 60001 T02390211 10283 20239 53014 =
2018-07-22 19:44 METAR KPOU 222344Z 12006KT 9SM -RA BKN024 OVC035 24/21 A3000 RMK AO2 RAB21 P0001
                 T02390211 =
2018-07-22 18:53 METAR KPOU 222253Z 12013G19KT 10SM SCT029 BKN042 26/19 A2998 RMK AO2 SLP148
                 T02610194 =
2018-07-22 17:53 METAR KPOU 222153Z 14007G18KT 100V180 10SM SCT028 27/21 A2997 RMK AO2 SLP144
                 T02720211 =
2018-07-22 16:53 METAR KPOU 222053Z 13013G21KT 10SM SCT100 27/21 A2996 RMK AO2 SLP142 T02720211
                 53003 =
2018-07-22 15:53 METAR KPOU 221953Z 15012G22KT 10SM FEW027 FEW065 28/21 A2995 RMK AO2 SLP137
                 T02780211 =
2018-07-22 14:53 METAR KPOU 221853Z 14009G16KT 10SM BKN033 BKN045 BKN050 27/21 A2995 RMK AO2
                 SLP138 T02720206 =
2018-07-22 13:53 METAR KPOU 221753Z 18006KT 10SM SCT035 BKN042 28/21 A2995 RMK AO2 SLP139 60004
                 T02780206 10278 20211 50015 =
2018-07-22 13:16 METAR KPOU 221716Z VRB04G16KT 10SM SCT024 BKN030 26/20 A2996 RMK AO2 T02610200 =
2018-07-22 12:53 METAR KPOU 221653Z 14010G16KT 10SM BKN024 OVC031 24/20 A2996 RMK AO2 SLP139
                 T02440200 =
2018-07-22 11:53 METAR KPOU 221553Z 15007KT 10SM SCT020 OVC026 24/21 A2993 RMK AO2 RAB01E34
                 SLP132 P0003 T02390206 =

Support USWX by starting your Amazon purchase here.